Weather at San Pedro Airport

Public forecast

Using degrees Celsius for public forecast. Weather courtesy of forecast.io.

Closest aviation weather report (METAR) to San Pedro Airport

Report is more than 6 hours old.

Closest report is Puerto Cabezas Airport, 72.1 nm (133.5 km) E. Retrieved 2022/09/17 18:00 UTC (20 days ago):

MNPC 171800Z 35008KT 6000 VCRA FEW014CB SCT016 28/25 Q1010 CBRA/E

Closest aviation forecast (TAF) to San Pedro Airport

Forecast is more than 12 hours old.

Closest forecast is Puerto Cabezas Airport, 72.1 nm (133.5 km) E. Retrieved 2022/08/20 18:15 UTC (2 months ago):

TAF MNPC 201712Z 2018/2118 36004KT 6000 -TS FEW014CB BKN016TCU FM210200 36004KT 8000 HZ/VCRA FEW018TCU BECMG 2112/2117 08010KT 9000 BKN017TCU SCT060